sensor_id;sensor_type;location;lat;lon;timestamp;P1;durP1;ratioP1;P2;durP2;ratioP2
65896;SDS011;52677;50.898;10.854;2023-08-06T00:00:50;3.20;;;2.78;;
65896;SDS011;52677;50.898;10.854;2023-08-06T00:02:50;5.50;;;2.95;;
65896;SDS011;52677;50.898;10.854;2023-08-06T00:04:51;5.07;;;3.20;;
65896;SDS011;52677;50.898;10.854;2023-08-06T00:06:52;4.55;;;2.90;;
65896;SDS011;52677;50.898;10.854;2023-08-06T00:08:53;3.92;;;3.10;;
65896;SDS011;52677;50.898;10.854;2023-08-06T00:10:54;4.30;;;2.92;;
65896;SDS011;52677;50.898;10.854;2023-08-06T00:12:55;5.20;;;3.38;;
65896;SDS011;52677;50.898;10.854;2023-08-06T00:14:55;3.53;;;3.10;;
65896;SDS011;52677;50.898;10.854;2023-08-06T00:16:55;4.00;;;3.00;;
65896;SDS011;52677;50.898;10.854;2023-08-06T00:18:56;4.13;;;3.10;;
65896;SDS011;52677;50.898;10.854;2023-08-06T00:20:56;3.42;;;3.00;;
65896;SDS011;52677;50.898;10.854;2023-08-06T00:22:56;5.47;;;2.80;;
65896;SDS011;52677;50.898;10.854;2023-08-06T00:24:57;3.22;;;2.92;;
65896;SDS011;52677;50.898;10.854;2023-08-06T00:26:57;3.83;;;3.30;;
65896;SDS011;52677;50.898;10.854;2023-08-06T00:28:57;3.30;;;2.85;;
65896;SDS011;52677;50.898;10.854;2023-08-06T00:30:58;3.30;;;3.00;;
65896;SDS011;52677;50.898;10.854;2023-08-06T00:32:58;4.57;;;2.90;;
65896;SDS011;52677;50.898;10.854;2023-08-06T00:34:58;5.35;;;3.05;;
65896;SDS011;52677;50.898;10.854;2023-08-06T00:36:59;3.75;;;3.20;;
65896;SDS011;52677;50.898;10.854;2023-08-06T00:38:59;10.13;;;3.53;;
65896;SDS011;52677;50.898;10.854;2023-08-06T00:40:59;3.78;;;3.20;;
65896;SDS011;52677;50.898;10.854;2023-08-06T00:43:00;3.58;;;2.80;;
65896;SDS011;52677;50.898;10.854;2023-08-06T00:45:00;3.92;;;2.95;;
65896;SDS011;52677;50.898;10.854;2023-08-06T00:47:01;5.38;;;3.63;;
65896;SDS011;52677;50.898;10.854;2023-08-06T00:49:02;3.80;;;3.10;;
65896;SDS011;52677;50.898;10.854;2023-08-06T00:51:03;5.88;;;3.35;;
65896;SDS011;52677;50.898;10.854;2023-08-06T00:53:04;3.30;;;3.00;;
65896;SDS011;52677;50.898;10.854;2023-08-06T00:55:04;6.03;;;3.70;;
65896;SDS011;52677;50.898;10.854;2023-08-06T00:57:05;7.95;;;3.60;;
65896;SDS011;52677;50.898;10.854;2023-08-06T00:59:07;3.50;;;3.20;;
65896;SDS011;52677;50.898;10.854;2023-08-06T01:01:08;3.83;;;3.42;;
65896;SDS011;52677;50.898;10.854;2023-08-06T01:03:09;5.18;;;3.38;;
65896;SDS011;52677;50.898;10.854;2023-08-06T01:05:09;4.55;;;3.28;;
65896;SDS011;52677;50.898;10.854;2023-08-06T01:07:21;3.22;;;2.78;;
65896;SDS011;52677;50.898;10.854;2023-08-06T01:09:45;3.85;;;3.00;;
65896;SDS011;52677;50.898;10.854;2023-08-06T01:12:40;3.95;;;2.72;;
65896;SDS011;52677;50.898;10.854;2023-08-06T01:14:52;4.43;;;2.97;;
65896;SDS011;52677;50.898;10.854;2023-08-06T01:17:00;4.97;;;3.10;;
65896;SDS011;52677;50.898;10.854;2023-08-06T01:19:01;6.22;;;3.15;;
65896;SDS011;52677;50.898;10.854;2023-08-06T01:21:02;5.15;;;2.88;;
65896;SDS011;52677;50.898;10.854;2023-08-06T01:23:02;3.60;;;3.03;;
65896;SDS011;52677;50.898;10.854;2023-08-06T01:25:02;3.42;;;2.97;;
65896;SDS011;52677;50.898;10.854;2023-08-06T01:27:08;3.95;;;3.05;;
65896;SDS011;52677;50.898;10.854;2023-08-06T01:31:27;3.47;;;2.97;;
65896;SDS011;52677;50.898;10.854;2023-08-06T01:33:35;6.72;;;3.00;;
65896;SDS011;52677;50.898;10.854;2023-08-06T01:35:40;4.68;;;2.60;;
65896;SDS011;52677;50.898;10.854;2023-08-06T01:37:41;3.35;;;2.60;;
65896;SDS011;52677;50.898;10.854;2023-08-06T01:39:42;4.30;;;3.10;;
65896;SDS011;52677;50.898;10.854;2023-08-06T01:41:43;3.13;;;2.83;;
65896;SDS011;52677;50.898;10.854;2023-08-06T01:43:44;3.80;;;2.80;;
65896;SDS011;52677;50.898;10.854;2023-08-06T01:45:44;3.80;;;2.90;;
65896;SDS011;52677;50.898;10.854;2023-08-06T01:47:44;3.63;;;2.97;;
65896;SDS011;52677;50.898;10.854;2023-08-06T01:49:45;4.18;;;2.90;;
65896;SDS011;52677;50.898;10.854;2023-08-06T01:51:45;4.28;;;2.67;;
65896;SDS011;52677;50.898;10.854;2023-08-06T01:53:45;4.32;;;3.30;;
65896;SDS011;52677;50.898;10.854;2023-08-06T01:55:49;3.28;;;2.80;;
65896;SDS011;52677;50.898;10.854;2023-08-06T01:57:49;3.30;;;2.97;;
65896;SDS011;52677;50.898;10.854;2023-08-06T01:59:50;2.65;;;2.42;;
65896;SDS011;52677;50.898;10.854;2023-08-06T02:01:50;7.45;;;3.03;;
65896;SDS011;52677;50.898;10.854;2023-08-06T02:03:50;4.75;;;3.42;;
65896;SDS011;52677;50.898;10.854;2023-08-06T02:05:51;4.80;;;3.05;;
65896;SDS011;52677;50.898;10.854;2023-08-06T02:07:51;2.90;;;2.60;;
65896;SDS011;52677;50.898;10.854;2023-08-06T02:09:51;4.70;;;3.17;;
65896;SDS011;52677;50.898;10.854;2023-08-06T02:11:52;4.20;;;2.88;;
65896;SDS011;52677;50.898;10.854;2023-08-06T02:13:52;3.88;;;3.20;;
65896;SDS011;52677;50.898;10.854;2023-08-06T02:15:52;5.22;;;2.90;;
65896;SDS011;52677;50.898;10.854;2023-08-06T02:17:52;3.78;;;2.83;;
65896;SDS011;52677;50.898;10.854;2023-08-06T02:19:53;4.18;;;3.25;;
65896;SDS011;52677;50.898;10.854;2023-08-06T02:21:53;8.18;;;3.25;;
65896;SDS011;52677;50.898;10.854;2023-08-06T02:23:53;3.92;;;3.30;;
65896;SDS011;52677;50.898;10.854;2023-08-06T02:26:00;7.10;;;3.60;;
65896;SDS011;52677;50.898;10.854;2023-08-06T02:28:02;4.95;;;3.30;;
65896;SDS011;52677;50.898;10.854;2023-08-06T02:30:02;5.53;;;3.38;;
65896;SDS011;52677;50.898;10.854;2023-08-06T02:32:04;3.58;;;3.28;;
65896;SDS011;52677;50.898;10.854;2023-08-06T02:34:05;4.15;;;3.75;;
65896;SDS011;52677;50.898;10.854;2023-08-06T02:36:05;3.53;;;3.17;;
65896;SDS011;52677;50.898;10.854;2023-08-06T02:38:06;4.50;;;3.28;;
65896;SDS011;52677;50.898;10.854;2023-08-06T02:40:06;4.68;;;3.53;;
65896;SDS011;52677;50.898;10.854;2023-08-06T02:42:07;3.78;;;3.25;;
65896;SDS011;52677;50.898;10.854;2023-08-06T02:44:07;3.35;;;2.97;;
65896;SDS011;52677;50.898;10.854;2023-08-06T02:46:08;4.60;;;3.08;;
65896;SDS011;52677;50.898;10.854;2023-08-06T02:48:08;7.47;;;3.45;;
65896;SDS011;52677;50.898;10.854;2023-08-06T02:50:08;5.00;;;3.30;;
65896;SDS011;52677;50.898;10.854;2023-08-06T02:52:09;6.38;;;3.28;;
65896;SDS011;52677;50.898;10.854;2023-08-06T02:54:09;4.15;;;3.15;;
65896;SDS011;52677;50.898;10.854;2023-08-06T02:56:09;3.83;;;3.40;;
65896;SDS011;52677;50.898;10.854;2023-08-06T02:58:10;4.32;;;3.58;;
65896;SDS011;52677;50.898;10.854;2023-08-06T03:00:10;4.63;;;3.40;;
65896;SDS011;52677;50.898;10.854;2023-08-06T03:02:11;5.80;;;2.75;;
65896;SDS011;52677;50.898;10.854;2023-08-06T03:04:11;6.22;;;3.42;;
65896;SDS011;52677;50.898;10.854;2023-08-06T03:06:12;13.02;;;3.38;;
65896;SDS011;52677;50.898;10.854;2023-08-06T03:08:12;5.50;;;3.38;;
65896;SDS011;52677;50.898;10.854;2023-08-06T03:10:13;5.72;;;4.18;;
65896;SDS011;52677;50.898;10.854;2023-08-06T03:12:13;6.35;;;3.33;;
65896;SDS011;52677;50.898;10.854;2023-08-06T03:14:13;3.80;;;3.40;;
65896;SDS011;52677;50.898;10.854;2023-08-06T03:16:14;3.97;;;3.38;;
65896;SDS011;52677;50.898;10.854;2023-08-06T03:18:14;8.68;;;3.78;;
65896;SDS011;52677;50.898;10.854;2023-08-06T03:20:15;6.82;;;3.33;;
65896;SDS011;52677;50.898;10.854;2023-08-06T03:22:15;7.97;;;3.90;;
65896;SDS011;52677;50.898;10.854;2023-08-06T03:24:15;6.57;;;3.70;;
65896;SDS011;52677;50.898;10.854;2023-08-06T03:26:16;5.03;;;3.80;;
65896;SDS011;52677;50.898;10.854;2023-08-06T03:28:16;7.70;;;3.70;;
65896;SDS011;52677;50.898;10.854;2023-08-06T03:30:16;4.35;;;3.40;;
65896;SDS011;52677;50.898;10.854;2023-08-06T03:32:17;6.25;;;3.65;;
65896;SDS011;52677;50.898;10.854;2023-08-06T03:34:17;14.00;;;4.30;;
65896;SDS011;52677;50.898;10.854;2023-08-06T03:36:17;4.57;;;3.15;;
65896;SDS011;52677;50.898;10.854;2023-08-06T03:38:18;4.68;;;3.17;;
65896;SDS011;52677;50.898;10.854;2023-08-06T03:40:18;4.68;;;3.75;;
65896;SDS011;52677;50.898;10.854;2023-08-06T03:42:18;5.07;;;3.28;;
65896;SDS011;52677;50.898;10.854;2023-08-06T03:44:19;4.68;;;4.07;;
65896;SDS011;52677;50.898;10.854;2023-08-06T03:46:19;6.30;;;3.65;;
65896;SDS011;52677;50.898;10.854;2023-08-06T03:48:19;4.95;;;3.70;;
65896;SDS011;52677;50.898;10.854;2023-08-06T03:50:20;3.38;;;2.92;;
65896;SDS011;52677;50.898;10.854;2023-08-06T03:52:20;5.70;;;3.22;;
65896;SDS011;52677;50.898;10.854;2023-08-06T03:54:20;4.18;;;3.60;;
65896;SDS011;52677;50.898;10.854;2023-08-06T03:56:20;4.35;;;3.63;;
65896;SDS011;52677;50.898;10.854;2023-08-06T03:58:21;4.38;;;3.50;;
65896;SDS011;52677;50.898;10.854;2023-08-06T04:00:21;5.43;;;3.78;;
65896;SDS011;52677;50.898;10.854;2023-08-06T04:02:22;4.97;;;3.08;;
65896;SDS011;52677;50.898;10.854;2023-08-06T04:04:22;8.50;;;4.00;;
65896;SDS011;52677;50.898;10.854;2023-08-06T04:06:22;5.57;;;3.40;;
65896;SDS011;52677;50.898;10.854;2023-08-06T04:08:22;5.75;;;3.97;;
65896;SDS011;52677;50.898;10.854;2023-08-06T04:10:23;5.07;;;3.60;;
65896;SDS011;52677;50.898;10.854;2023-08-06T04:12:23;4.35;;;3.65;;
65896;SDS011;52677;50.898;10.854;2023-08-06T04:14:25;6.13;;;3.38;;
65896;SDS011;52677;50.898;10.854;2023-08-06T04:16:26;3.88;;;2.95;;
65896;SDS011;52677;50.898;10.854;2023-08-06T04:18:26;5.00;;;3.33;;
65896;SDS011;52677;50.898;10.854;2023-08-06T04:20:26;4.88;;;3.33;;
65896;SDS011;52677;50.898;10.854;2023-08-06T04:22:27;6.70;;;3.25;;
65896;SDS011;52677;50.898;10.854;2023-08-06T04:24:27;6.10;;;3.50;;
65896;SDS011;52677;50.898;10.854;2023-08-06T04:26:29;4.30;;;3.60;;
65896;SDS011;52677;50.898;10.854;2023-08-06T04:28:29;5.43;;;3.38;;
65896;SDS011;52677;50.898;10.854;2023-08-06T04:30:30;3.80;;;2.97;;
65896;SDS011;52677;50.898;10.854;2023-08-06T04:32:30;3.63;;;2.72;;
65896;SDS011;52677;50.898;10.854;2023-08-06T04:34:30;4.50;;;2.70;;
65896;SDS011;52677;50.898;10.854;2023-08-06T04:36:31;4.43;;;3.28;;
65896;SDS011;52677;50.898;10.854;2023-08-06T04:38:31;7.57;;;3.33;;
65896;SDS011;52677;50.898;10.854;2023-08-06T04:40:35;4.60;;;3.40;;
65896;SDS011;52677;50.898;10.854;2023-08-06T04:42:36;5.45;;;3.30;;
65896;SDS011;52677;50.898;10.854;2023-08-06T04:44:36;5.85;;;3.33;;
65896;SDS011;52677;50.898;10.854;2023-08-06T04:46:36;7.43;;;3.65;;
65896;SDS011;52677;50.898;10.854;2023-08-06T04:48:37;5.45;;;3.13;;
65896;SDS011;52677;50.898;10.854;2023-08-06T04:50:37;4.85;;;3.00;;
65896;SDS011;52677;50.898;10.854;2023-08-06T04:52:37;5.00;;;3.28;;
65896;SDS011;52677;50.898;10.854;2023-08-06T04:54:38;5.40;;;3.10;;
65896;SDS011;52677;50.898;10.854;2023-08-06T04:56:38;5.30;;;3.45;;
65896;SDS011;52677;50.898;10.854;2023-08-06T04:58:38;5.05;;;3.35;;
65896;SDS011;52677;50.898;10.854;2023-08-06T05:00:39;4.05;;;3.03;;
65896;SDS011;52677;50.898;10.854;2023-08-06T05:02:39;3.47;;;2.90;;
65896;SDS011;52677;50.898;10.854;2023-08-06T05:04:39;7.78;;;3.22;;
65896;SDS011;52677;50.898;10.854;2023-08-06T05:06:40;5.00;;;3.10;;
65896;SDS011;52677;50.898;10.854;2023-08-06T05:08:41;9.48;;;3.15;;
65896;SDS011;52677;50.898;10.854;2023-08-06T05:10:42;5.18;;;3.10;;
65896;SDS011;52677;50.898;10.854;2023-08-06T05:14:44;8.03;;;3.30;;
65896;SDS011;52677;50.898;10.854;2023-08-06T05:16:44;4.75;;;3.45;;
65896;SDS011;52677;50.898;10.854;2023-08-06T05:18:44;7.28;;;3.70;;
65896;SDS011;52677;50.898;10.854;2023-08-06T05:20:45;7.22;;;3.75;;
65896;SDS011;52677;50.898;10.854;2023-08-06T05:22:46;13.32;;;4.15;;
65896;SDS011;52677;50.898;10.854;2023-08-06T05:24:46;4.90;;;3.05;;
65896;SDS011;52677;50.898;10.854;2023-08-06T05:26:46;4.50;;;2.95;;
65896;SDS011;52677;50.898;10.854;2023-08-06T05:28:47;5.15;;;2.65;;
65896;SDS011;52677;50.898;10.854;2023-08-06T05:30:48;6.95;;;3.67;;
65896;SDS011;52677;50.898;10.854;2023-08-06T05:32:48;4.38;;;3.15;;
65896;SDS011;52677;50.898;10.854;2023-08-06T05:34:48;4.95;;;3.80;;
65896;SDS011;52677;50.898;10.854;2023-08-06T05:36:49;5.28;;;4.32;;
65896;SDS011;52677;50.898;10.854;2023-08-06T05:38:49;6.68;;;3.75;;
65896;SDS011;52677;50.898;10.854;2023-08-06T05:40:49;9.50;;;4.75;;
65896;SDS011;52677;50.898;10.854;2023-08-06T05:42:49;10.60;;;4.47;;
65896;SDS011;52677;50.898;10.854;2023-08-06T05:44:50;8.65;;;4.40;;
65896;SDS011;52677;50.898;10.854;2023-08-06T05:46:50;12.63;;;4.30;;
65896;SDS011;52677;50.898;10.854;2023-08-06T05:48:51;7.68;;;4.47;;
65896;SDS011;52677;50.898;10.854;2023-08-06T05:50:51;8.80;;;4.15;;
65896;SDS011;52677;50.898;10.854;2023-08-06T05:52:52;6.63;;;4.03;;
65896;SDS011;52677;50.898;10.854;2023-08-06T05:54:52;9.23;;;4.90;;
65896;SDS011;52677;50.898;10.854;2023-08-06T05:56:53;7.60;;;4.03;;
65896;SDS011;52677;50.898;10.854;2023-08-06T05:58:53;4.75;;;4.00;;
65896;SDS011;52677;50.898;10.854;2023-08-06T06:00:54;7.57;;;4.10;;
65896;SDS011;52677;50.898;10.854;2023-08-06T06:02:54;7.30;;;3.80;;
65896;SDS011;52677;50.898;10.854;2023-08-06T06:04:54;6.20;;;3.78;;
65896;SDS011;52677;50.898;10.854;2023-08-06T06:06:55;3.97;;;3.28;;
65896;SDS011;52677;50.898;10.854;2023-08-06T06:08:55;4.32;;;3.42;;
65896;SDS011;52677;50.898;10.854;2023-08-06T06:10:56;6.82;;;3.72;;
65896;SDS011;52677;50.898;10.854;2023-08-06T06:12:56;6.20;;;3.80;;
65896;SDS011;52677;50.898;10.854;2023-08-06T06:14:56;4.85;;;3.95;;
65896;SDS011;52677;50.898;10.854;2023-08-06T06:16:56;4.97;;;3.50;;
65896;SDS011;52677;50.898;10.854;2023-08-06T06:18:57;6.68;;;3.75;;
65896;SDS011;52677;50.898;10.854;2023-08-06T06:20:57;4.22;;;3.47;;
65896;SDS011;52677;50.898;10.854;2023-08-06T06:22:57;3.50;;;3.10;;
65896;SDS011;52677;50.898;10.854;2023-08-06T06:24:58;4.82;;;4.00;;
65896;SDS011;52677;50.898;10.854;2023-08-06T06:26:58;5.03;;;3.70;;
65896;SDS011;52677;50.898;10.854;2023-08-06T06:28:59;5.20;;;4.00;;
65896;SDS011;52677;50.898;10.854;2023-08-06T06:31:00;5.43;;;4.07;;
65896;SDS011;52677;50.898;10.854;2023-08-06T06:33:01;5.43;;;3.67;;
65896;SDS011;52677;50.898;10.854;2023-08-06T06:35:01;5.43;;;3.63;;
65896;SDS011;52677;50.898;10.854;2023-08-06T06:37:02;5.72;;;4.00;;
65896;SDS011;52677;50.898;10.854;2023-08-06T06:39:02;11.48;;;4.63;;
65896;SDS011;52677;50.898;10.854;2023-08-06T06:41:03;11.40;;;4.70;;
65896;SDS011;52677;50.898;10.854;2023-08-06T06:43:03;8.23;;;4.07;;
65896;SDS011;52677;50.898;10.854;2023-08-06T06:45:03;6.13;;;4.13;;
65896;SDS011;52677;50.898;10.854;2023-08-06T06:47:04;7.88;;;3.97;;
65896;SDS011;52677;50.898;10.854;2023-08-06T06:49:04;7.82;;;4.05;;
65896;SDS011;52677;50.898;10.854;2023-08-06T06:51:05;3.75;;;3.40;;
65896;SDS011;52677;50.898;10.854;2023-08-06T06:53:05;5.93;;;3.33;;
65896;SDS011;52677;50.898;10.854;2023-08-06T06:55:06;7.50;;;4.03;;
65896;SDS011;52677;50.898;10.854;2023-08-06T06:57:06;5.93;;;4.25;;
65896;SDS011;52677;50.898;10.854;2023-08-06T06:59:07;7.82;;;4.40;;
65896;SDS011;52677;50.898;10.854;2023-08-06T07:01:07;4.45;;;3.63;;
65896;SDS011;52677;50.898;10.854;2023-08-06T07:05:10;5.00;;;4.00;;
65896;SDS011;52677;50.898;10.854;2023-08-06T07:07:10;5.85;;;3.95;;
65896;SDS011;52677;50.898;10.854;2023-08-06T07:09:11;7.63;;;4.45;;
65896;SDS011;52677;50.898;10.854;2023-08-06T07:11:11;5.03;;;4.57;;
65896;SDS011;52677;50.898;10.854;2023-08-06T07:13:11;7.13;;;4.30;;
65896;SDS011;52677;50.898;10.854;2023-08-06T07:15:11;7.85;;;4.38;;
65896;SDS011;52677;50.898;10.854;2023-08-06T07:17:12;6.25;;;4.13;;
65896;SDS011;52677;50.898;10.854;2023-08-06T07:19:12;6.63;;;3.92;;
65896;SDS011;52677;50.898;10.854;2023-08-06T07:21:12;6.80;;;4.10;;
65896;SDS011;52677;50.898;10.854;2023-08-06T07:23:14;4.70;;;3.80;;
65896;SDS011;52677;50.898;10.854;2023-08-06T07:25:14;7.07;;;4.00;;
65896;SDS011;52677;50.898;10.854;2023-08-06T07:27:15;4.47;;;4.03;;
65896;SDS011;52677;50.898;10.854;2023-08-06T07:29:15;4.53;;;3.83;;
65896;SDS011;52677;50.898;10.854;2023-08-06T07:31:19;4.85;;;4.35;;
65896;SDS011;52677;50.898;10.854;2023-08-06T07:33:20;5.30;;;4.15;;
65896;SDS011;52677;50.898;10.854;2023-08-06T07:35:20;4.65;;;3.97;;
65896;SDS011;52677;50.898;10.854;2023-08-06T07:37:20;7.03;;;4.22;;
65896;SDS011;52677;50.898;10.854;2023-08-06T07:39:21;4.30;;;3.80;;
65896;SDS011;52677;50.898;10.854;2023-08-06T07:41:23;5.33;;;3.37;;
65896;SDS011;52677;50.898;10.854;2023-08-06T07:43:23;4.63;;;4.07;;
65896;SDS011;52677;50.898;10.854;2023-08-06T07:45:24;5.05;;;3.95;;
65896;SDS011;52677;50.898;10.854;2023-08-06T07:47:24;3.75;;;3.35;;
65896;SDS011;52677;50.898;10.854;2023-08-06T07:49:25;4.68;;;3.50;;
65896;SDS011;52677;50.898;10.854;2023-08-06T07:51:25;5.90;;;4.07;;
65896;SDS011;52677;50.898;10.854;2023-08-06T07:53:25;4.32;;;3.72;;
65896;SDS011;52677;50.898;10.854;2023-08-06T07:55:32;6.15;;;3.50;;
65896;SDS011;52677;50.898;10.854;2023-08-06T07:57:32;4.85;;;3.22;;
65896;SDS011;52677;50.898;10.854;2023-08-06T07:59:34;3.30;;;3.00;;
65896;SDS011;52677;50.898;10.854;2023-08-06T08:01:34;7.57;;;3.35;;
65896;SDS011;52677;50.898;10.854;2023-08-06T08:03:35;3.55;;;2.53;;
65896;SDS011;52677;50.898;10.854;2023-08-06T08:05:35;2.85;;;2.13;;
65896;SDS011;52677;50.898;10.854;2023-08-06T08:07:35;3.13;;;2.45;;
65896;SDS011;52677;50.898;10.854;2023-08-06T08:09:36;2.63;;;2.40;;
65896;SDS011;52677;50.898;10.854;2023-08-06T08:11:36;2.95;;;2.10;;
65896;SDS011;52677;50.898;10.854;2023-08-06T08:13:36;3.38;;;2.22;;
65896;SDS011;52677;50.898;10.854;2023-08-06T08:15:36;4.00;;;2.47;;
65896;SDS011;52677;50.898;10.854;2023-08-06T08:17:37;3.00;;;2.53;;
65896;SDS011;52677;50.898;10.854;2023-08-06T08:19:37;3.25;;;2.67;;
65896;SDS011;52677;50.898;10.854;2023-08-06T08:21:38;4.55;;;2.70;;
65896;SDS011;52677;50.898;10.854;2023-08-06T08:23:38;3.85;;;2.97;;
65896;SDS011;52677;50.898;10.854;2023-08-06T08:25:39;3.40;;;2.63;;
65896;SDS011;52677;50.898;10.854;2023-08-06T08:27:39;3.65;;;2.53;;
65896;SDS011;52677;50.898;10.854;2023-08-06T08:29:39;4.25;;;2.85;;
65896;SDS011;52677;50.898;10.854;2023-08-06T08:31:40;3.88;;;2.88;;
65896;SDS011;52677;50.898;10.854;2023-08-06T08:33:40;3.15;;;2.30;;
65896;SDS011;52677;50.898;10.854;2023-08-06T08:35:40;6.28;;;2.83;;
65896;SDS011;52677;50.898;10.854;2023-08-06T08:37:41;3.47;;;2.50;;
65896;SDS011;52677;50.898;10.854;2023-08-06T08:39:42;3.90;;;2.40;;
65896;SDS011;52677;50.898;10.854;2023-08-06T08:41:43;4.47;;;2.30;;
65896;SDS011;52677;50.898;10.854;2023-08-06T08:43:43;3.45;;;2.22;;
65896;SDS011;52677;50.898;10.854;2023-08-06T08:45:44;2.35;;;2.10;;
65896;SDS011;52677;50.898;10.854;2023-08-06T08:47:49;4.30;;;2.13;;
65896;SDS011;52677;50.898;10.854;2023-08-06T08:49:52;2.50;;;2.13;;
65896;SDS011;52677;50.898;10.854;2023-08-06T08:51:55;5.05;;;2.40;;
65896;SDS011;52677;50.898;10.854;2023-08-06T08:53:57;2.83;;;2.10;;
65896;SDS011;52677;50.898;10.854;2023-08-06T08:55:57;3.33;;;2.20;;
65896;SDS011;52677;50.898;10.854;2023-08-06T08:57:58;3.17;;;1.95;;
65896;SDS011;52677;50.898;10.854;2023-08-06T08:59:59;2.30;;;1.90;;
65896;SDS011;52677;50.898;10.854;2023-08-06T09:02:00;3.13;;;2.10;;
65896;SDS011;52677;50.898;10.854;2023-08-06T09:04:01;3.70;;;2.30;;
65896;SDS011;52677;50.898;10.854;2023-08-06T09:06:02;3.55;;;2.17;;
65896;SDS011;52677;50.898;10.854;2023-08-06T09:08:04;4.93;;;2.50;;
65896;SDS011;52677;50.898;10.854;2023-08-06T09:10:05;2.90;;;2.25;;
65896;SDS011;52677;50.898;10.854;2023-08-06T09:12:11;4.00;;;2.10;;
65896;SDS011;52677;50.898;10.854;2023-08-06T09:14:13;2.80;;;2.40;;
65896;SDS011;52677;50.898;10.854;2023-08-06T09:16:14;3.50;;;2.15;;
65896;SDS011;52677;50.898;10.854;2023-08-06T09:18:14;3.35;;;2.70;;
65896;SDS011;52677;50.898;10.854;2023-08-06T09:20:14;5.07;;;1.90;;
65896;SDS011;52677;50.898;10.854;2023-08-06T09:22:16;2.83;;;2.10;;
65896;SDS011;52677;50.898;10.854;2023-08-06T09:24:16;3.63;;;1.98;;
65896;SDS011;52677;50.898;10.854;2023-08-06T09:26:17;4.25;;;2.10;;
65896;SDS011;52677;50.898;10.854;2023-08-06T09:28:17;2.58;;;1.70;;
65896;SDS011;52677;50.898;10.854;2023-08-06T09:30:30;3.10;;;1.70;;
65896;SDS011;52677;50.898;10.854;2023-08-06T09:32:53;3.65;;;2.08;;
65896;SDS011;52677;50.898;10.854;2023-08-06T09:34:57;3.03;;;1.60;;
65896;SDS011;52677;50.898;10.854;2023-08-06T09:36:57;4.78;;;1.90;;
65896;SDS011;52677;50.898;10.854;2023-08-06T09:38:57;3.38;;;1.65;;
65896;SDS011;52677;50.898;10.854;2023-08-06T09:40:58;4.00;;;1.90;;
65896;SDS011;52677;50.898;10.854;2023-08-06T09:42:58;3.65;;;2.15;;
65896;SDS011;52677;50.898;10.854;2023-08-06T09:45:05;1.95;;;1.55;;
65896;SDS011;52677;50.898;10.854;2023-08-06T09:47:06;2.17;;;1.80;;
65896;SDS011;52677;50.898;10.854;2023-08-06T09:49:07;2.70;;;1.75;;
65896;SDS011;52677;50.898;10.854;2023-08-06T09:51:08;3.10;;;1.65;;
65896;SDS011;52677;50.898;10.854;2023-08-06T09:53:09;5.07;;;2.00;;
65896;SDS011;52677;50.898;10.854;2023-08-06T09:55:10;4.53;;;2.03;;
65896;SDS011;52677;50.898;10.854;2023-08-06T09:57:12;2.47;;;1.85;;
65896;SDS011;52677;50.898;10.854;2023-08-06T09:59:12;2.60;;;1.70;;
65896;SDS011;52677;50.898;10.854;2023-08-06T10:01:13;5.82;;;1.70;;
65896;SDS011;52677;50.898;10.854;2023-08-06T10:05:18;2.30;;;1.67;;
65896;SDS011;52677;50.898;10.854;2023-08-06T10:07:18;1.80;;;1.50;;
65896;SDS011;52677;50.898;10.854;2023-08-06T10:09:18;2.70;;;1.63;;
65896;SDS011;52677;50.898;10.854;2023-08-06T10:11:21;2.55;;;1.80;;
65896;SDS011;52677;50.898;10.854;2023-08-06T10:13:24;1.83;;;1.40;;
65896;SDS011;52677;50.898;10.854;2023-08-06T10:15:25;1.70;;;1.40;;
65896;SDS011;52677;50.898;10.854;2023-08-06T10:17:27;1.88;;;1.40;;
65896;SDS011;52677;50.898;10.854;2023-08-06T10:19:28;3.05;;;1.55;;
65896;SDS011;52677;50.898;10.854;2023-08-06T10:21:31;2.90;;;1.55;;
65896;SDS011;52677;50.898;10.854;2023-08-06T10:23:35;4.38;;;1.30;;
65896;SDS011;52677;50.898;10.854;2023-08-06T10:25:41;1.95;;;1.50;;
65896;SDS011;52677;50.898;10.854;2023-08-06T10:29:49;3.70;;;1.50;;
65896;SDS011;52677;50.898;10.854;2023-08-06T10:31:54;2.50;;;1.63;;
65896;SDS011;52677;50.898;10.854;2023-08-06T10:33:57;1.98;;;1.52;;
65896;SDS011;52677;50.898;10.854;2023-08-06T10:36:00;3.13;;;1.55;;
65896;SDS011;52677;50.898;10.854;2023-08-06T10:38:08;3.08;;;1.38;;
65896;SDS011;52677;50.898;10.854;2023-08-06T10:40:15;1.67;;;1.25;;
65896;SDS011;52677;50.898;10.854;2023-08-06T10:42:21;2.10;;;1.40;;
65896;SDS011;52677;50.898;10.854;2023-08-06T10:44:28;1.70;;;1.20;;
65896;SDS011;52677;50.898;10.854;2023-08-06T10:46:29;2.45;;;1.10;;
65896;SDS011;52677;50.898;10.854;2023-08-06T10:48:30;1.83;;;1.20;;
65896;SDS011;52677;50.898;10.854;2023-08-06T10:50:40;1.13;;;1.05;;
65896;SDS011;52677;50.898;10.854;2023-08-06T10:52:42;2.10;;;1.08;;
65896;SDS011;52677;50.898;10.854;2023-08-06T10:54:43;1.30;;;1.20;;
65896;SDS011;52677;50.898;10.854;2023-08-06T10:56:44;3.70;;;1.60;;
65896;SDS011;52677;50.898;10.854;2023-08-06T10:58:45;2.42;;;1.25;;
65896;SDS011;52677;50.898;10.854;2023-08-06T11:00:46;3.72;;;1.40;;
65896;SDS011;52677;50.898;10.854;2023-08-06T11:02:47;2.17;;;1.13;;
65896;SDS011;52677;50.898;10.854;2023-08-06T11:04:49;1.30;;;1.17;;
65896;SDS011;52677;50.898;10.854;2023-08-06T11:06:52;2.17;;;1.33;;
65896;SDS011;52677;50.898;10.854;2023-08-06T11:08:53;2.35;;;1.05;;
65896;SDS011;52677;50.898;10.854;2023-08-06T11:10:54;1.88;;;1.25;;
65896;SDS011;52677;50.898;10.854;2023-08-06T11:13:00;1.30;;;1.10;;
65896;SDS011;52677;50.898;10.854;2023-08-06T11:15:01;1.92;;;1.08;;
65896;SDS011;52677;50.898;10.854;2023-08-06T11:17:03;2.22;;;1.23;;
65896;SDS011;52677;50.898;10.854;2023-08-06T11:19:03;3.05;;;1.30;;
65896;SDS011;52677;50.898;10.854;2023-08-06T11:21:03;1.88;;;1.05;;
65896;SDS011;52677;50.898;10.854;2023-08-06T11:23:04;3.10;;;1.45;;
65896;SDS011;52677;50.898;10.854;2023-08-06T11:25:08;2.00;;;1.10;;
65896;SDS011;52677;50.898;10.854;2023-08-06T11:27:15;1.70;;;1.00;;
65896;SDS011;52677;50.898;10.854;2023-08-06T11:29:16;4.35;;;1.27;;
65896;SDS011;52677;50.898;10.854;2023-08-06T11:31:20;2.47;;;1.23;;
65896;SDS011;52677;50.898;10.854;2023-08-06T11:33:21;2.03;;;1.30;;
65896;SDS011;52677;50.898;10.854;2023-08-06T11:35:25;1.27;;;1.05;;
65896;SDS011;52677;50.898;10.854;2023-08-06T11:37:25;2.67;;;1.20;;
65896;SDS011;52677;50.898;10.854;2023-08-06T11:39:26;3.40;;;1.13;;
65896;SDS011;52677;50.898;10.854;2023-08-06T11:41:29;3.15;;;1.20;;
65896;SDS011;52677;50.898;10.854;2023-08-06T11:43:30;4.45;;;1.23;;
65896;SDS011;52677;50.898;10.854;2023-08-06T11:45:31;1.58;;;1.10;;
65896;SDS011;52677;50.898;10.854;2023-08-06T11:47:31;6.97;;;0.93;;
65896;SDS011;52677;50.898;10.854;2023-08-06T11:49:38;0.98;;;0.88;;
65896;SDS011;52677;50.898;10.854;2023-08-06T11:53:55;1.65;;;0.77;;
65896;SDS011;52677;50.898;10.854;2023-08-06T11:55:56;4.10;;;0.88;;
65896;SDS011;52677;50.898;10.854;2023-08-06T11:57:57;1.58;;;0.88;;
65896;SDS011;52677;50.898;10.854;2023-08-06T12:00:00;1.95;;;1.00;;
65896;SDS011;52677;50.898;10.854;2023-08-06T12:02:03;1.25;;;1.00;;
65896;SDS011;52677;50.898;10.854;2023-08-06T12:04:08;2.22;;;1.00;;
65896;SDS011;52677;50.898;10.854;2023-08-06T12:06:08;1.38;;;0.80;;
65896;SDS011;52677;50.898;10.854;2023-08-06T12:08:08;1.02;;;0.70;;
65896;SDS011;52677;50.898;10.854;2023-08-06T12:10:09;1.92;;;0.80;;
65896;SDS011;52677;50.898;10.854;2023-08-06T12:12:10;1.20;;;0.80;;